ココス (キーリング) 諸島 の空港の天気 - METARとTAF

ココス島国際空港 ( YPCC / CCK ) - ココス諸島 ココス (キーリング) 諸島
飛行場実況気象(Metar)
観測時間10/16 14:00 CCT (10/16 07:30 UTC)
風向・風速東南東 6m/s
視程10km以上
天気現象
少しの雲 雲底高度 850m
全天の8割程度の雲 雲底高度 10360m
気温28℃
湿度66%
気圧1012hPa
METARYPCC 160730Z 11012KT 9999 FEW028 BKN340 28/21 Q1012 RF00.0/000.0
過去の天気等 Google飛行場航空写真 Wunderground天気予報

過去48時間のMETAR

飛行場予報(TAF)
発表時間: 10/16 11:36 CCT (10/16 05:06 UTC)
予報対象時間: 16日12時 CCT ~ 17日12時 CCT
風向・風速東南東 6m/s
視程10km以上
全天の4割程度の雲 雲底高度 760m
TAF YPCC 160506Z 1606/1706 11012KT 9999 SCT025